Time;durP1;ratioP1;P1;durP2;ratioP2;P2;SDS_P1;SDS_P2;PMS_P1;PMS_P2;Temp;Humidity;BMP_temperature;BMP_pressure;BME280_temperature;BME280_humidity;BME280_pressure;Samples;Min_cycle;Max_cycle;Signal;HPM_P1;HPM_P2
2024/03/11 00:02:30;;;;;;;1.45;1.15;;;;;;;;;;6323674;28;20020;-77
2024/03/11 00:05:30;;;;;;;3.05;1.02;;;;;;;;;;6319132;28;20098;-77
2024/03/11 00:08:31;;;;;;;1.80;0.90;;;;;;;;;;6324216;28;20044;-76
2024/03/11 00:11:32;;;;;;;3.08;0.98;;;;;;;;;;6316117;28;20071;-76
2024/03/11 00:14:33;;;;;;;3.27;0.97;;;;;;;;;;6313868;28;20028;-76
2024/03/11 00:17:34;;;;;;;2.08;1.10;;;;;;;;;;6321739;28;20024;-77
2024/03/11 00:20:35;;;;;;;1.75;0.90;;;;;;;;;;6316330;28;20016;-76
2024/03/11 00:23:35;;;;;;;3.35;1.23;;;;;;;;;;6322472;28;20396;-76
2024/03/11 00:26:36;;;;;;;2.43;0.90;;;;;;;;;;6323082;28;20155;-76
2024/03/11 00:29:36;;;;;;;1.87;1.30;;;;;;;;;;6323627;28;20484;-76
2024/03/11 00:32:38;;;;;;;3.38;1.40;;;;;;;;;;6321658;28;20024;-75
2024/03/11 00:35:38;;;;;;;;;;;;;;;;;;6323009;28;20043;-75
2024/03/11 00:38:39;;;;;;;2.77;0.77;;;;;;;;;;6305706;28;19912;-76
2024/03/11 00:41:39;;;;;;;3.47;1.02;;;;;;;;;;6323947;28;20032;-76
2024/03/11 00:44:40;;;;;;;2.50;1.17;;;;;;;;;;6323414;28;20060;-77
2024/03/11 00:47:41;;;;;;;3.25;1.05;;;;;;;;;;6322566;28;20055;-76
2024/03/11 00:50:41;;;;;;;1.40;1.00;;;;;;;;;;6318334;28;20028;-77
2024/03/11 00:53:42;;;;;;;1.73;1.10;;;;;;;;;;6314176;28;20036;-76
2024/03/11 00:56:42;;;;;;;2.03;1.17;;;;;;;;;;6318130;28;20089;-76
2024/03/11 00:59:43;;;;;;;1.42;1.20;;;;;;;;;;6322492;28;20040;-76
2024/03/11 01:02:43;;;;;;;2.58;1.13;;;;;;;;;;6320869;28;20382;-76
2024/03/11 01:05:44;;;;;;;3.37;1.30;;;;;;;;;;6318143;28;20061;-77
2024/03/11 01:08:44;;;;;;;1.75;1.20;;;;;;;;;;6321638;28;20035;-76
2024/03/11 01:11:44;;;;;;;1.67;1.23;;;;;;;;;;6316469;28;20115;-77
2024/03/11 01:14:44;;;;;;;4.00;1.40;;;;;;;;;;6322058;28;20073;-77
2024/03/11 01:17:45;;;;;;;2.03;1.20;;;;;;;;;;6324772;28;20065;-77
2024/03/11 01:20:45;;;;;;;3.10;1.40;;;;;;;;;;6322900;28;20028;-77
2024/03/11 01:23:47;;;;;;;2.80;1.55;;;;;;;;;;6319884;28;20024;-78
2024/03/11 01:26:47;;;;;;;2.63;1.20;;;;;;;;;;6321073;28;20081;-77
2024/03/11 01:29:47;;;;;;;2.80;1.37;;;;;;;;;;6321118;28;20032;-77
2024/03/11 01:32:49;;;;;;;3.43;1.37;;;;;;;;;;6321828;28;20495;-76
2024/03/11 01:35:53;;;;;;;2.22;1.30;;;;;;;;;;6320639;28;20024;-76
2024/03/11 01:38:54;;;;;;;2.13;1.38;;;;;;;;;;6320202;28;20038;-77
2024/03/11 01:41:54;;;;;;;4.68;1.35;;;;;;;;;;6317033;28;20465;-77
2024/03/11 01:44:54;;;;;;;1.70;1.10;;;;;;;;;;6321586;28;20672;-77
2024/03/11 01:47:55;;;;;;;2.97;1.40;;;;;;;;;;6322252;28;20043;-77
2024/03/11 01:50:55;;;;;;;3.50;1.40;;;;;;;;;;6301585;28;20054;-77
2024/03/11 01:53:56;;;;;;;2.92;1.33;;;;;;;;;;6320236;28;20034;-76
2024/03/11 01:56:57;;;;;;;4.68;1.52;;;;;;;;;;6319467;28;20460;-77
2024/03/11 01:59:57;;;;;;;2.47;1.50;;;;;;;;;;6321459;28;20035;-76
2024/03/11 02:02:58;;;;;;;2.30;1.38;;;;;;;;;;6321800;28;20040;-77
2024/03/11 02:05:58;;;;;;;3.90;1.43;;;;;;;;;;6296698;28;20028;-76
2024/03/11 02:08:58;;;;;;;3.20;1.57;;;;;;;;;;6322305;28;20024;-77
2024/03/11 02:11:59;;;;;;;1.40;1.20;;;;;;;;;;6320237;28;20016;-77
2024/03/11 02:14:59;;;;;;;1.85;1.40;;;;;;;;;;6320665;28;20413;-75
2024/03/11 02:18:00;;;;;;;2.13;1.30;;;;;;;;;;6301262;28;20459;-76
2024/03/11 02:21:02;;;;;;;2.92;1.30;;;;;;;;;;6310776;28;20077;-76
2024/03/11 02:24:02;;;;;;;2.88;1.67;;;;;;;;;;6301737;28;20028;-75
2024/03/11 02:27:02;;;;;;;1.83;1.27;;;;;;;;;;6319773;28;20052;-75
2024/03/11 02:30:03;;;;;;;1.97;1.30;;;;;;;;;;6302069;28;20113;-76
2024/03/11 02:33:05;;;;;;;2.20;1.40;;;;;;;;;;6319494;28;20027;-76
2024/03/11 02:36:05;;;;;;;2.28;1.30;;;;;;;;;;6320760;28;20021;-76
2024/03/11 02:39:07;;;;;;;2.27;1.40;;;;;;;;;;6320277;28;20031;-78
2024/03/11 02:42:08;;;;;;;2.70;1.33;;;;;;;;;;6305045;28;20027;-75
2024/03/11 02:45:11;;;;;;;4.27;1.53;;;;;;;;;;6316379;28;20043;-76
2024/03/11 02:48:11;;;;;;;2.08;1.27;;;;;;;;;;6321684;28;20384;-76
2024/03/11 02:51:12;;;;;;;1.37;1.20;;;;;;;;;;6316721;28;20020;-76
2024/03/11 02:54:12;;;;;;;1.97;1.10;;;;;;;;;;6321169;28;20503;-76
2024/03/11 02:57:13;;;;;;;1.05;0.95;;;;;;;;;;6320201;28;20384;-76
2024/03/11 03:00:14;;;;;;;1.17;1.08;;;;;;;;;;6320899;28;20028;-75
2024/03/11 03:03:17;;;;;;;1.20;1.00;;;;;;;;;;6319094;28;20040;-77
2024/03/11 03:06:17;;;;;;;1.40;1.20;;;;;;;;;;6318907;28;20027;-76
2024/03/11 03:09:21;;;;;;;1.87;1.20;;;;;;;;;;6320674;28;20020;-75
2024/03/11 03:12:21;;;;;;;1.42;1.33;;;;;;;;;;6318197;28;20020;-75
2024/03/11 03:15:21;;;;;;;2.60;1.47;;;;;;;;;;6316309;28;20020;-75
2024/03/11 03:18:22;;;;;;;1.57;1.20;;;;;;;;;;6318551;28;20020;-75
2024/03/11 03:21:22;;;;;;;1.33;1.23;;;;;;;;;;6314964;28;20027;-77
2024/03/11 03:24:22;;;;;;;1.27;1.00;;;;;;;;;;6316194;28;20467;-75
2024/03/11 03:27:22;;;;;;;1.50;1.20;;;;;;;;;;6318431;28;20052;-75
2024/03/11 03:30:23;;;;;;;2.93;1.20;;;;;;;;;;6312328;28;20544;-77
2024/03/11 03:33:24;;;;;;;1.20;1.10;;;;;;;;;;6318590;28;20516;-76
2024/03/11 03:36:24;;;;;;;1.50;1.30;;;;;;;;;;6317182;28;20047;-76
2024/03/11 03:39:25;;;;;;;1.40;1.30;;;;;;;;;;6317579;28;20020;-76
2024/03/11 03:42:25;;;;;;;1.23;1.13;;;;;;;;;;6316573;28;20063;-76
2024/03/11 03:45:27;;;;;;;1.60;1.17;;;;;;;;;;6319490;28;20032;-76
2024/03/11 03:48:27;;;;;;;1.37;1.27;;;;;;;;;;6316244;28;20066;-75
2024/03/11 03:51:28;;;;;;;0.93;0.80;;;;;;;;;;6318250;28;20024;-75
2024/03/11 03:54:28;;;;;;;1.13;0.93;;;;;;;;;;6315677;28;20024;-75
2024/03/11 03:57:29;;;;;;;1.10;1.00;;;;;;;;;;6315490;28;20062;-76
2024/03/11 04:00:29;;;;;;;1.47;1.13;;;;;;;;;;6317550;28;20038;-76
2024/03/11 04:03:29;;;;;;;1.40;1.00;;;;;;;;;;6320066;28;20021;-76
2024/03/11 04:06:32;;;;;;;1.33;1.23;;;;;;;;;;6318819;28;20522;-76
2024/03/11 04:09:32;;;;;;;1.27;1.13;;;;;;;;;;6317777;28;20024;-75
2024/03/11 04:12:32;;;;;;;1.10;1.00;;;;;;;;;;6316446;28;20031;-75
2024/03/11 04:15:33;;;;;;;1.60;1.00;;;;;;;;;;6316032;28;20046;-75
2024/03/11 04:18:33;;;;;;;1.47;1.10;;;;;;;;;;6312012;28;20511;-75
2024/03/11 04:21:34;;;;;;;1.27;1.00;;;;;;;;;;6309490;28;20049;-76
2024/03/11 04:24:35;;;;;;;1.10;1.00;;;;;;;;;;6312112;28;20037;-76
2024/03/11 04:27:35;;;;;;;1.35;1.10;;;;;;;;;;6319308;28;20024;-75
2024/03/11 04:30:37;;;;;;;1.30;1.10;;;;;;;;;;6321214;28;20494;-76
2024/03/11 04:33:38;;;;;;;1.13;1.02;;;;;;;;;;6324327;28;20066;-75
2024/03/11 04:36:41;;;;;;;1.30;1.20;;;;;;;;;;6323685;28;20060;-76
2024/03/11 04:39:42;;;;;;;1.10;1.00;;;;;;;;;;6315767;28;20627;-76
2024/03/11 04:42:42;;;;;;;1.25;1.00;;;;;;;;;;6302984;28;20031;-75
2024/03/11 04:45:42;;;;;;;1.20;1.10;;;;;;;;;;6323835;28;20516;-76
2024/03/11 04:48:43;;;;;;;1.00;0.80;;;;;;;;;;6325039;28;20020;-76
2024/03/11 04:51:43;;;;;;;1.90;1.10;;;;;;;;;;6305049;28;20060;-76
2024/03/11 04:54:43;;;;;;;1.03;0.93;;;;;;;;;;6317795;28;20751;-76
2024/03/11 04:57:45;;;;;;;1.77;1.30;;;;;;;;;;6323807;28;20385;-76
2024/03/11 05:00:45;;;;;;;1.38;1.08;;;;;;;;;;6325455;28;20107;-75
2024/03/11 05:03:46;;;;;;;1.40;1.30;;;;;;;;;;6325939;28;20388;-75
2024/03/11 05:06:46;;;;;;;1.33;1.23;;;;;;;;;;6321738;28;20400;-76
2024/03/11 05:09:46;;;;;;;1.50;1.30;;;;;;;;;;6324835;28;20048;-76
2024/03/11 05:12:47;;;;;;;1.90;1.07;;;;;;;;;;6325789;28;20020;-75
2024/03/11 05:15:47;;;;;;;0.93;0.90;;;;;;;;;;6323404;28;20035;-75
2024/03/11 05:18:48;;;;;;;1.50;1.10;;;;;;;;;;6324833;28;20039;-75
2024/03/11 05:21:48;;;;;;;1.20;1.07;;;;;;;;;;6322031;28;20040;-76
2024/03/11 05:24:49;;;;;;;1.23;1.10;;;;;;;;;;6323727;28;20290;-75
2024/03/11 05:27:51;;;;;;;1.38;1.10;;;;;;;;;;6325040;28;20020;-74
2024/03/11 05:30:51;;;;;;;1.60;1.08;;;;;;;;;;6322371;28;20392;-75
2024/03/11 05:33:51;;;;;;;1.13;1.03;;;;;;;;;;6320141;28;20031;-75
2024/03/11 05:36:51;;;;;;;1.30;1.10;;;;;;;;;;6297770;28;20140;-75
2024/03/11 05:39:55;;;;;;;1.40;1.07;;;;;;;;;;6300816;28;20119;-75
2024/03/11 05:42:55;;;;;;;1.67;0.93;;;;;;;;;;6310095;28;20016;-76
2024/03/11 05:45:56;;;;;;;1.30;0.80;;;;;;;;;;6321328;28;20020;-76
2024/03/11 05:48:56;;;;;;;1.03;0.93;;;;;;;;;;6321328;28;20043;-76
2024/03/11 05:51:56;;;;;;;1.10;1.00;;;;;;;;;;6318776;28;20149;-76
2024/03/11 05:54:58;;;;;;;1.53;1.00;;;;;;;;;;6320221;28;20512;-75
2024/03/11 05:58:02;;;;;;;;;;;;;;;;;;6312311;28;20120;-76
2024/03/11 06:01:02;;;;;;;1.27;0.75;;;;;;;;;;6320091;28;19903;-76
2024/03/11 06:04:02;;;;;;;1.70;1.30;;;;;;;;;;6318804;28;20035;-74
2024/03/11 06:07:03;;;;;;;1.47;1.07;;;;;;;;;;6317441;28;20027;-75
2024/03/11 06:10:03;;;;;;;1.50;1.37;;;;;;;;;;6320458;28;20043;-76
2024/03/11 06:13:04;;;;;;;2.25;1.50;;;;;;;;;;6299471;28;20123;-75
2024/03/11 06:16:07;;;;;;;1.60;1.05;;;;;;;;;;6317599;28;20035;-75
2024/03/11 06:19:08;;;;;;;1.27;1.17;;;;;;;;;;6314445;28;20031;-78
2024/03/11 06:22:10;;;;;;;0.90;0.80;;;;;;;;;;6306483;28;20032;-77
2024/03/11 06:25:11;;;;;;;;;;;;;;;;;;6315118;28;20079;-78
2024/03/11 06:28:11;;;;;;;1.00;0.80;;;;;;;;;;6311563;28;19915;-78
2024/03/11 06:31:11;;;;;;;2.37;1.20;;;;;;;;;;6310110;28;20074;-77
2024/03/11 06:34:14;;;;;;;1.00;0.90;;;;;;;;;;6318433;28;20039;-77
2024/03/11 06:37:14;;;;;;;1.20;0.80;;;;;;;;;;6316393;28;20032;-78
2024/03/11 06:40:17;;;;;;;0.70;0.70;;;;;;;;;;6319941;28;20039;-78
2024/03/11 06:43:17;;;;;;;4.43;0.80;;;;;;;;;;6312768;28;20020;-78
2024/03/11 06:46:18;;;;;;;1.00;0.83;;;;;;;;;;6312690;28;20074;-78
2024/03/11 06:49:19;;;;;;;1.02;0.60;;;;;;;;;;6305657;28;20397;-78
2024/03/11 06:52:19;;;;;;;0.97;0.70;;;;;;;;;;6304772;28;20032;-78
2024/03/11 06:55:20;;;;;;;0.60;0.60;;;;;;;;;;6316371;28;20092;-78
2024/03/11 06:58:20;;;;;;;1.38;0.50;;;;;;;;;;6316694;28;20021;-78
2024/03/11 07:01:20;;;;;;;1.07;0.70;;;;;;;;;;6311821;28;20381;-78
2024/03/11 07:04:21;;;;;;;0.60;0.60;;;;;;;;;;6320775;28;20032;-78
2024/03/11 07:07:21;;;;;;;1.20;0.70;;;;;;;;;;6317572;28;20392;-78
2024/03/11 07:10:21;;;;;;;0.70;0.50;;;;;;;;;;6316203;28;20027;-78
2024/03/11 07:13:22;;;;;;;0.75;0.60;;;;;;;;;;6307763;28;20020;-77
2024/03/11 07:16:22;;;;;;;0.60;0.60;;;;;;;;;;6316391;28;20036;-77
2024/03/11 07:19:25;;;;;;;0.47;0.47;;;;;;;;;;6290890;28;20427;-79
2024/03/11 07:22:25;;;;;;;0.80;0.60;;;;;;;;;;6286115;28;20396;-79
2024/03/11 07:25:27;;;;;;;0.50;0.50;;;;;;;;;;6302856;28;20122;-78
2024/03/11 07:28:28;;;;;;;0.77;0.70;;;;;;;;;;6321596;28;20020;-77
2024/03/11 07:31:28;;;;;;;1.45;0.80;;;;;;;;;;6322233;28;20027;-77
2024/03/11 07:34:31;;;;;;;1.03;0.70;;;;;;;;;;6319238;28;20031;-78
2024/03/11 07:37:36;;;;;;;0.63;0.60;;;;;;;;;;6320221;28;20016;-77
2024/03/11 07:40:37;;;;;;;0.68;0.55;;;;;;;;;;6300730;28;20472;-77
2024/03/11 07:43:37;;;;;;;0.60;0.60;;;;;;;;;;6323887;28;20035;-78
2024/03/11 07:46:37;;;;;;;0.50;0.50;;;;;;;;;;6320675;28;20044;-77
2024/03/11 07:49:38;;;;;;;0.63;0.50;;;;;;;;;;6317192;28;20024;-78
2024/03/11 07:52:38;;;;;;;0.80;0.50;;;;;;;;;;6317701;28;20071;-77
2024/03/11 07:55:39;;;;;;;0.93;0.70;;;;;;;;;;6321966;28;20376;-77
2024/03/11 07:58:39;;;;;;;0.50;0.50;;;;;;;;;;6322235;28;20091;-76
2024/03/11 08:01:40;;;;;;;0.40;0.40;;;;;;;;;;6318135;28;20024;-77
2024/03/11 08:04:41;;;;;;;0.50;0.50;;;;;;;;;;6306268;28;20392;-78
2024/03/11 08:07:42;;;;;;;0.60;0.43;;;;;;;;;;6324512;28;20031;-77
2024/03/11 08:10:42;;;;;;;0.45;0.40;;;;;;;;;;6324433;28;20039;-78
2024/03/11 08:13:42;;;;;;;0.43;0.43;;;;;;;;;;6301550;28;20082;-77
2024/03/11 08:16:42;;;;;;;0.93;0.63;;;;;;;;;;6321096;28;20110;-77
2024/03/11 08:19:44;;;;;;;0.50;0.50;;;;;;;;;;6324753;28;20046;-77
2024/03/11 08:22:45;;;;;;;0.50;0.50;;;;;;;;;;6326018;28;20110;-77
2024/03/11 08:25:47;;;;;;;0.80;0.50;;;;;;;;;;6323748;28;20115;-77
2024/03/11 08:28:47;;;;;;;1.02;0.57;;;;;;;;;;6323370;28;20026;-77
2024/03/11 08:31:48;;;;;;;0.70;0.60;;;;;;;;;;6319501;28;20024;-77
2024/03/11 08:34:48;;;;;;;0.40;0.40;;;;;;;;;;6324075;28;20054;-77
2024/03/11 08:37:49;;;;;;;0.70;0.40;;;;;;;;;;6323893;28;20385;-77
2024/03/11 08:40:49;;;;;;;;;;;;;;;;;;6322561;28;20024;-77
2024/03/11 08:43:51;;;;;;;0.40;0.40;;;;;;;;;;6324607;28;19911;-76
2024/03/11 08:46:51;;;;;;;0.40;0.30;;;;;;;;;;6318086;28;20028;-76
2024/03/11 08:49:53;;;;;;;0.40;0.40;;;;;;;;;;6321741;28;20381;-77
2024/03/11 08:52:53;;;;;;;1.10;0.63;;;;;;;;;;6306403;28;20059;-77
2024/03/11 08:55:53;;;;;;;0.47;0.47;;;;;;;;;;6321430;28;20032;-76
2024/03/11 08:58:54;;;;;;;0.70;0.57;;;;;;;;;;6324573;28;20028;-82
2024/03/11 09:01:57;;;;;;;0.88;0.60;;;;;;;;;;6313546;28;20522;-83
2024/03/11 09:04:58;;;;;;;0.80;0.43;;;;;;;;;;6287703;28;20357;-83
2024/03/11 09:07:59;;;;;;;0.37;0.37;;;;;;;;;;6303509;28;20413;-83
2024/03/11 09:10:59;;;;;;;0.40;0.40;;;;;;;;;;6321495;28;20464;-83
2024/03/11 09:14:00;;;;;;;0.33;0.33;;;;;;;;;;6294616;28;20031;-83
2024/03/11 09:17:00;;;;;;;1.50;0.40;;;;;;;;;;6303688;28;20084;-83
2024/03/11 09:20:00;;;;;;;0.93;0.43;;;;;;;;;;6303263;28;20024;-83
2024/03/11 09:23:02;;;;;;;0.73;0.60;;;;;;;;;;6320081;28;20042;-82
2024/03/11 09:26:04;;;;;;;0.52;0.50;;;;;;;;;;6280114;28;776997;-83
2024/03/11 09:29:04;;;;;;;0.70;0.50;;;;;;;;;;6320019;28;20036;-82
2024/03/11 09:32:05;;;;;;;1.13;0.87;;;;;;;;;;6323199;28;20026;-83
2024/03/11 09:35:05;;;;;;;0.70;0.65;;;;;;;;;;6327952;28;20039;-76
2024/03/11 09:38:06;;;;;;;0.70;0.60;;;;;;;;;;6320368;28;20028;-77
2024/03/11 09:41:14;;;;;;;0.60;0.60;;;;;;;;;;6320161;28;20016;-77
2024/03/11 09:44:18;;;;;;;0.68;0.50;;;;;;;;;;6321275;28;20036;-77
2024/03/11 09:47:18;;;;;;;1.02;0.60;;;;;;;;;;6319606;28;20043;-79
2024/03/11 09:50:26;;;;;;;1.30;0.60;;;;;;;;;;6318820;28;20118;-81
2024/03/11 09:53:27;;;;;;;0.52;0.52;;;;;;;;;;5960919;28;10000188;-80
2024/03/11 09:56:27;;;;;;;1.05;0.50;;;;;;;;;;6328293;28;20032;-80
2024/03/11 09:59:30;;;;;;;0.57;0.50;;;;;;;;;;6323317;28;20453;-80
2024/03/11 10:02:31;;;;;;;0.55;0.55;;;;;;;;;;6321006;28;20028;-79
2024/03/11 10:05:32;;;;;;;0.60;0.60;;;;;;;;;;6316044;28;20046;-79
2024/03/11 10:08:34;;;;;;;0.63;0.63;;;;;;;;;;6320297;28;20016;-79
2024/03/11 10:11:35;;;;;;;0.80;0.60;;;;;;;;;;6322459;28;20032;-79
2024/03/11 10:14:36;;;;;;;0.80;0.80;;;;;;;;;;6322060;28;20027;-79
2024/03/11 10:17:43;;;;;;;0.57;0.50;;;;;;;;;;6315146;28;20035;-79
2024/03/11 10:20:54;;;;;;;0.80;0.55;;;;;;;;;;6320183;28;20028;-78
2024/03/11 10:23:58;;;;;;;0.65;0.60;;;;;;;;;;6323417;28;20069;-79
2024/03/11 10:26:59;;;;;;;0.63;0.63;;;;;;;;;;6320572;28;20044;-78
2024/03/11 10:30:20;;;;;;;0.70;0.57;;;;;;;;;;6317279;28;20050;-80
2024/03/11 10:33:28;;;;;;;1.17;0.68;;;;;;;;;;6319520;28;20055;-80
2024/03/11 10:36:28;;;;;;;0.80;0.75;;;;;;;;;;6320173;28;20032;-85
2024/03/11 10:39:40;;;;;;;0.70;0.70;;;;;;;;;;6323368;28;20028;-85
2024/03/11 10:42:49;;;;;;;0.73;0.70;;;;;;;;;;6305124;28;20065;-84
2024/03/11 10:45:51;;;;;;;2.15;1.42;;;;;;;;;;6317992;28;20024;-86
2024/03/11 10:48:51;;;;;;;1.80;1.30;;;;;;;;;;6325864;28;20024;-85
2024/03/11 10:51:55;;;;;;;1.50;1.20;;;;;;;;;;6312809;28;20162;-84
2024/03/11 10:54:55;;;;;;;1.13;0.93;;;;;;;;;;6304639;28;20378;-85
2024/03/11 10:57:56;;;;;;;0.90;0.80;;;;;;;;;;6324706;28;20032;-83
2024/03/11 11:01:00;;;;;;;0.82;0.65;;;;;;;;;;6324591;28;20491;-85
2024/03/11 11:04:05;;;;;;;1.35;0.82;;;;;;;;;;6293993;28;20035;-85
2024/03/11 11:07:08;;;;;;;1.00;0.77;;;;;;;;;;6305811;28;20452;-84
2024/03/11 11:10:11;;;;;;;0.68;0.68;;;;;;;;;;6322900;28;20114;-86
2024/03/11 11:13:15;;;;;;;0.80;0.80;;;;;;;;;;6324881;28;20032;-86
2024/03/11 11:16:18;;;;;;;0.75;0.70;;;;;;;;;;6300277;28;20024;-86
2024/03/11 11:19:22;;;;;;;0.90;0.80;;;;;;;;;;6311874;28;20028;-86
2024/03/11 11:22:25;;;;;;;1.05;0.77;;;;;;;;;;6322017;28;20020;-86
2024/03/11 11:25:51;;;;;;;1.10;0.77;;;;;;;;;;6322038;28;20052;-81
2024/03/11 11:28:59;;;;;;;0.60;0.60;;;;;;;;;;6318462;28;20043;-79
2024/03/11 11:32:03;;;;;;;0.63;0.60;;;;;;;;;;6318619;28;20012;-77
2024/03/11 11:35:04;;;;;;;0.80;0.60;;;;;;;;;;6303104;28;20044;-78
2024/03/11 11:38:26;;;;;;;0.60;0.60;;;;;;;;;;6324848;28;20012;-77
2024/03/11 11:41:36;;;;;;;0.50;0.50;;;;;;;;;;6321595;28;20066;-76
2024/03/11 11:44:39;;;;;;;1.15;0.75;;;;;;;;;;6312853;28;20421;-78
2024/03/11 11:47:40;;;;;;;1.27;1.05;;;;;;;;;;6295917;28;20024;-77
2024/03/11 11:50:41;;;;;;;1.33;1.20;;;;;;;;;;6326295;28;20120;-77
2024/03/11 11:53:41;;;;;;;2.40;1.33;;;;;;;;;;6323230;28;20544;-78
2024/03/11 11:56:42;;;;;;;2.20;1.33;;;;;;;;;;6322114;28;20038;-76
2024/03/11 11:59:43;;;;;;;1.47;1.27;;;;;;;;;;6325158;28;20036;-76
2024/03/11 12:02:48;;;;;;;1.63;1.10;;;;;;;;;;6321702;28;20028;-76
2024/03/11 12:06:11;;;;;;;1.80;1.38;;;;;;;;;;6326746;28;20396;-75
2024/03/11 12:09:12;;;;;;;2.25;1.45;;;;;;;;;;6327533;28;20469;-76
2024/03/11 12:12:14;;;;;;;1.70;1.38;;;;;;;;;;6326860;28;20023;-75
2024/03/11 12:15:18;;;;;;;2.47;1.30;;;;;;;;;;6328048;28;20032;-76
2024/03/11 12:18:18;;;;;;;1.35;1.10;;;;;;;;;;6328381;28;20457;-75
2024/03/11 12:21:19;;;;;;;2.03;1.30;;;;;;;;;;6327062;28;20069;-75
2024/03/11 12:24:21;;;;;;;2.35;1.05;;;;;;;;;;6326868;28;20016;-76
2024/03/11 12:27:21;;;;;;;1.65;1.20;;;;;;;;;;6325401;28;20051;-76
2024/03/11 12:30:26;;;;;;;4.90;1.37;;;;;;;;;;6327120;28;20031;-75
2024/03/11 12:33:28;;;;;;;1.63;1.23;;;;;;;;;;6316042;28;20046;-76
2024/03/11 12:36:29;;;;;;;1.63;1.38;;;;;;;;;;6324025;28;20032;-76
2024/03/11 12:39:46;;;;;;;1.33;1.23;;;;;;;;;;6315832;28;20073;-76
2024/03/11 12:42:48;;;;;;;1.70;0.95;;;;;;;;;;6303074;28;20033;-76
2024/03/11 12:45:53;;;;;;;1.80;1.33;;;;;;;;;;6324976;28;20074;-77
2024/03/11 12:48:53;;;;;;;1.35;1.20;;;;;;;;;;6317119;28;20043;-76
2024/03/11 12:52:20;;;;;;;1.67;1.30;;;;;;;;;;6321608;28;20040;-76
2024/03/11 12:55:22;;;;;;;1.33;1.15;;;;;;;;;;6321379;28;20036;-75
2024/03/11 12:58:22;;;;;;;1.70;1.30;;;;;;;;;;6313502;28;20024;-76
2024/03/11 13:01:23;;;;;;;1.20;1.10;;;;;;;;;;6308150;28;20027;-76
2024/03/11 13:04:24;;;;;;;1.08;0.98;;;;;;;;;;6320737;28;20028;-76
2024/03/11 13:07:24;;;;;;;0.87;0.87;;;;;;;;;;6315482;28;20031;-76
2024/03/11 13:10:24;;;;;;;1.13;1.00;;;;;;;;;;6325627;28;20366;-76
2024/03/11 13:13:25;;;;;;;0.98;0.80;;;;;;;;;;6325671;28;20035;-76
2024/03/11 13:16:26;;;;;;;1.23;0.77;;;;;;;;;;6326683;28;20373;-76
2024/03/11 13:19:27;;;;;;;0.73;0.60;;;;;;;;;;6324783;28;20476;-77
2024/03/11 13:22:30;;;;;;;0.87;0.73;;;;;;;;;;6311631;28;20039;-76
2024/03/11 13:25:32;;;;;;;0.70;0.70;;;;;;;;;;6305610;28;20118;-76
2024/03/11 13:28:33;;;;;;;0.73;0.73;;;;;;;;;;6306716;28;20025;-77
2024/03/11 13:31:33;;;;;;;1.65;0.90;;;;;;;;;;6321776;28;20028;-76
2024/03/11 13:34:39;;;;;;;1.07;0.80;;;;;;;;;;6324967;28;20097;-76
2024/03/11 13:37:40;;;;;;;0.90;0.80;;;;;;;;;;6322458;28;20023;-76
2024/03/11 13:40:40;;;;;;;1.07;0.73;;;;;;;;;;6320916;28;20056;-76
2024/03/11 13:43:41;;;;;;;0.73;0.73;;;;;;;;;;6326558;28;20055;-77
2024/03/11 13:46:46;;;;;;;0.80;0.60;;;;;;;;;;6325554;28;20016;-77
2024/03/11 13:49:49;;;;;;;1.65;0.98;;;;;;;;;;6324155;28;20107;-77
2024/03/11 13:52:50;;;;;;;2.25;0.82;;;;;;;;;;6317485;28;20042;-77
2024/03/11 13:55:51;;;;;;;1.17;0.80;;;;;;;;;;6318227;28;20081;-77
2024/03/11 13:58:51;;;;;;;1.10;1.00;;;;;;;;;;6320073;28;20036;-75
2024/03/11 14:01:54;;;;;;;0.87;0.83;;;;;;;;;;6304710;28;20028;-76
2024/03/11 14:04:54;;;;;;;0.95;0.82;;;;;;;;;;6298127;28;20036;-76
2024/03/11 14:07:54;;;;;;;1.40;1.10;;;;;;;;;;6324420;28;20496;-76
2024/03/11 14:10:56;;;;;;;0.88;0.88;;;;;;;;;;6323083;28;20016;-77
2024/03/11 14:13:58;;;;;;;0.85;0.65;;;;;;;;;;6324210;28;20020;-76
2024/03/11 14:16:59;;;;;;;1.20;0.93;;;;;;;;;;6317152;28;20469;-76
2024/03/11 14:19:59;;;;;;;1.20;1.00;;;;;;;;;;6323993;28;20108;-76
2024/03/11 14:23:00;;;;;;;1.40;1.13;;;;;;;;;;6322653;28;20089;-76
2024/03/11 14:26:01;;;;;;;1.48;0.82;;;;;;;;;;6323719;28;20048;-76
2024/03/11 14:29:02;;;;;;;0.90;0.88;;;;;;;;;;6323787;28;20052;-76
2024/03/11 14:32:04;;;;;;;1.05;0.95;;;;;;;;;;6323605;28;20027;-76
2024/03/11 14:35:07;;;;;;;1.17;1.08;;;;;;;;;;6323453;28;20040;-77
2024/03/11 14:38:08;;;;;;;1.20;1.05;;;;;;;;;;6283702;28;20039;-77
2024/03/11 14:41:11;;;;;;;1.20;1.10;;;;;;;;;;6323006;28;20024;-76
2024/03/11 14:44:15;;;;;;;1.00;0.98;;;;;;;;;;6322861;28;20392;-77
2024/03/11 14:47:15;;;;;;;1.00;0.90;;;;;;;;;;6323796;28;20093;-76
2024/03/11 14:50:16;;;;;;;2.30;1.30;;;;;;;;;;6322226;28;20476;-77
2024/03/11 14:53:19;;;;;;;1.50;1.40;;;;;;;;;;6322788;28;20016;-77
2024/03/11 14:56:20;;;;;;;2.22;1.20;;;;;;;;;;6303379;28;20024;-77
2024/03/11 14:59:26;;;;;;;2.88;1.20;;;;;;;;;;6320904;28;20112;-78
2024/03/11 15:02:27;;;;;;;1.02;0.88;;;;;;;;;;6321740;28;20035;-77
2024/03/11 15:05:29;;;;;;;1.52;1.00;;;;;;;;;;6302727;28;20481;-77
2024/03/11 15:08:31;;;;;;;1.38;1.10;;;;;;;;;;6321963;28;20028;-77
2024/03/11 15:11:33;;;;;;;1.25;1.10;;;;;;;;;;6317767;28;20103;-80
2024/03/11 15:14:34;;;;;;;1.67;1.25;;;;;;;;;;6321583;28;20076;-80
2024/03/11 15:17:35;;;;;;;2.45;1.33;;;;;;;;;;6304113;28;20036;-80
2024/03/11 15:20:36;;;;;;;;;;;;;;;;;;6299801;28;20376;-80
2024/03/11 15:23:38;;;;;;;1.60;0.70;;;;;;;;;;6322828;28;19911;-80
2024/03/11 15:26:38;;;;;;;0.85;0.82;;;;;;;;;;6320072;28;20501;-80
2024/03/11 15:29:40;;;;;;;1.27;1.10;;;;;;;;;;6323023;28;20056;-80
2024/03/11 15:32:40;;;;;;;;;;;;;;;;;;6305046;28;20020;-80
2024/03/11 15:35:40;;;;;;;0.80;0.77;;;;;;;;;;6320259;28;19947;-80
2024/03/11 15:38:42;;;;;;;1.20;0.90;;;;;;;;;;6299900;28;20028;-79
2024/03/11 15:41:43;;;;;;;1.25;1.15;;;;;;;;;;6319841;28;20027;-79
2024/03/11 15:44:43;;;;;;;1.48;1.35;;;;;;;;;;6320362;28;20032;-80
2024/03/11 15:47:45;;;;;;;1.27;1.17;;;;;;;;;;6322415;28;20020;-80
2024/03/11 15:50:49;;;;;;;1.90;1.35;;;;;;;;;;6320982;28;20079;-79
2024/03/11 15:53:53;;;;;;;1.33;1.05;;;;;;;;;;6321698;28;20024;-79
2024/03/11 15:56:55;;;;;;;1.58;1.27;;;;;;;;;;6321759;28;20020;-79
2024/03/11 15:59:57;;;;;;;1.20;1.10;;;;;;;;;;6322396;28;20024;-78
2024/03/11 16:02:58;;;;;;;1.30;1.10;;;;;;;;;;6302923;28;20024;-78
2024/03/11 16:05:58;;;;;;;2.05;1.30;;;;;;;;;;6320904;28;20024;-82
2024/03/11 16:08:58;;;;;;;3.17;0.93;;;;;;;;;;6321121;28;20113;-82
2024/03/11 16:11:58;;;;;;;2.10;0.97;;;;;;;;;;6320370;28;20447;-77
2024/03/11 16:14:59;;;;;;;1.47;1.10;;;;;;;;;;6320347;28;20429;-77
2024/03/11 16:17:59;;;;;;;1.20;1.00;;;;;;;;;;6317910;28;20035;-77
2024/03/11 16:21:00;;;;;;;2.40;0.93;;;;;;;;;;6317298;28;20023;-78
2024/03/11 16:24:00;;;;;;;1.85;0.98;;;;;;;;;;6320034;28;20115;-79
2024/03/11 16:27:03;;;;;;;1.20;1.10;;;;;;;;;;6323590;28;20485;-77
2024/03/11 16:30:04;;;;;;;1.52;0.98;;;;;;;;;;6312173;28;20107;-77
2024/03/11 16:33:05;;;;;;;1.25;1.00;;;;;;;;;;6325852;28;20471;-77
2024/03/11 16:36:05;;;;;;;1.20;1.10;;;;;;;;;;6324737;28;20495;-77
2024/03/11 16:39:08;;;;;;;1.00;0.87;;;;;;;;;;6304287;28;20047;-77
2024/03/11 16:42:10;;;;;;;1.17;0.93;;;;;;;;;;6300177;28;20052;-76
2024/03/11 16:45:11;;;;;;;;;;;;;;;;;;6314744;28;20031;-77
2024/03/11 16:48:11;;;;;;;1.60;0.88;;;;;;;;;;6312685;28;19904;-75
2024/03/11 16:51:12;;;;;;;2.07;1.30;;;;;;;;;;6307638;28;20031;-76
2024/03/11 16:54:17;;;;;;;1.60;1.17;;;;;;;;;;6311305;28;20442;-76
2024/03/11 16:57:17;;;;;;;1.48;1.35;;;;;;;;;;6302339;28;20069;-76
2024/03/11 17:00:21;;;;;;;1.30;0.90;;;;;;;;;;6320434;28;20028;-76
2024/03/11 17:03:23;;;;;;;2.35;1.20;;;;;;;;;;6312743;28;20024;-77
2024/03/11 17:06:25;;;;;;;1.58;1.40;;;;;;;;;;6324697;28;20074;-77
2024/03/11 17:09:29;;;;;;;1.63;1.17;;;;;;;;;;6319629;28;20025;-77
2024/03/11 17:12:30;;;;;;;1.40;1.30;;;;;;;;;;6311205;28;20449;-77
2024/03/11 17:15:31;;;;;;;1.42;1.25;;;;;;;;;;6322018;28;20088;-77
2024/03/11 17:18:31;;;;;;;3.00;2.00;;;;;;;;;;6310733;28;20017;-77
2024/03/11 17:21:31;;;;;;;3.23;2.40;;;;;;;;;;6313172;28;20406;-77
2024/03/11 17:24:32;;;;;;;3.13;2.13;;;;;;;;;;6316730;28;20455;-77
2024/03/11 17:27:34;;;;;;;2.10;1.77;;;;;;;;;;6320456;28;20028;-77
2024/03/11 17:30:34;;;;;;;2.47;1.85;;;;;;;;;;6323084;28;20036;-77
2024/03/11 17:33:37;;;;;;;1.50;1.30;;;;;;;;;;6323284;28;20065;-77
2024/03/11 17:36:37;;;;;;;1.52;1.23;;;;;;;;;;6320118;28;20020;-77
2024/03/11 17:39:37;;;;;;;1.60;1.10;;;;;;;;;;6320030;28;20027;-77
2024/03/11 17:42:40;;;;;;;1.83;1.27;;;;;;;;;;6320793;28;20076;-77
2024/03/11 17:45:43;;;;;;;1.30;1.20;;;;;;;;;;6316774;28;20028;-77
2024/03/11 17:48:46;;;;;;;1.27;1.10;;;;;;;;;;6320526;28;20111;-82
2024/03/11 17:51:47;;;;;;;1.60;1.15;;;;;;;;;;6317015;28;20016;-84
2024/03/11 17:54:47;;;;;;;1.63;1.33;;;;;;;;;;6305505;28;20036;-84
2024/03/11 17:57:49;;;;;;;1.90;1.20;;;;;;;;;;6303333;28;20031;-82
2024/03/11 18:00:51;;;;;;;1.25;1.08;;;;;;;;;;6321488;28;20024;-83
2024/03/11 18:03:51;;;;;;;1.30;1.10;;;;;;;;;;6302426;28;20434;-82
2024/03/11 18:06:52;;;;;;;1.20;1.10;;;;;;;;;;6316100;28;20036;-78
2024/03/11 18:09:52;;;;;;;1.40;1.27;;;;;;;;;;6319622;28;20485;-78
2024/03/11 18:12:56;;;;;;;1.13;0.97;;;;;;;;;;6322045;28;20026;-76